Buffalo River (Arkansas), Harriet (07056700)

StateArkansasCurrentGood (2050 cfs)
RiverBuffalo RiverFlood - The river is flooding. Obstacles can be treacherous or deadly. The river should be avoided at this stage for casual trips and definitely for the inexperienced. Trips should be attempted only with protective gear and equipment.Flood(none)
Updated2019-10-13 19:45 (7 minutes ago)High - The river is high and potentially dangerous, especially for the young and / or inexperienced. Normal stream obstacles are sometimes difficult to navigate. Extended distances can be attempted, but canoe travel may not be advisable.High(none)
Discharge2050 cfs (median: 94 cfs)Good - Conditions are ideal for a canoe or kayak. Boats typically will drag on fewer than one-quarter of riffles, if at all, and portages are unnecessary or rare. Normal float lengths can be attempted without a problem.Good200
Height5.41 feetLow - River is low but can still be floated. Some riffles are okay but most come with significant dragging and might need a portage. Float lengths should be reduced to accommodate low flow, dragging, and portages.Low(none)
TrendFalling (falling over 24 hours)Poor - River is too low to float comfortably. Most or all riffles will drag or must be portaged and some obstacles (such as slick shelf rock) cause undue problems. Avoid the river at this stage for casual paddling trips.Poor(none)
USGSExternal icon USGS Site for Harriet (07056700)LocationExternal icon Google Maps

Trending Data

Plot Image
ObservationHeightDischargeMaximum
Discharge
Minimum
Discharge
Mean
Discharge
P05P10P20P25P50
(Median)
P75P80P90P95
2019-10-13 19:45 5.41 2050 3240 (2010) 44 (2003) 602 51 70 73 94 988 1570 2530
2019-10-13 18:45 5.45 2090 3240 (2010) 44 (2003) 602 51 70 73 94 988 1570 2530
2019-10-13 17:45 5.48 2120 3240 (2010) 44 (2003) 602 51 70 73 94 988 1570 2530
2019-10-13 16:45 5.51 2160 3240 (2010) 44 (2003) 602 51 70 73 94 988 1570 2530
2019-10-13 15:45 5.54 2190 3240 (2010) 44 (2003) 602 51 70 73 94 988 1570 2530
2019-10-13 14:45 5.58 2240 3240 (2010) 44 (2003) 602 51 70 73 94 988 1570 2530
2019-10-13 13:45 5.63 2300 3240 (2010) 44 (2003) 602 51 70 73 94 988 1570 2530
2019-10-13 12:45 5.66 2330 3240 (2010) 44 (2003) 602 51 70 73 94 988 1570 2530
2019-10-13 11:45 5.71 2390 3240 (2010) 44 (2003) 602 51 70 73 94 988 1570 2530
2019-10-13 10:45 5.75 2440 3240 (2010) 44 (2003) 602 51 70 73 94 988 1570 2530
2019-10-13 09:45 5.78 2470 3240 (2010) 44 (2003) 602 51 70 73 94 988 1570 2530
2019-10-13 08:45 5.83 2530 3240 (2010) 44 (2003) 602 51 70 73 94 988 1570 2530
2019-10-13 07:45 5.87 2580 3240 (2010) 44 (2003) 602 51 70 73 94 988 1570 2530
2019-10-13 06:45 5.93 2650 3240 (2010) 44 (2003) 602 51 70 73 94 988 1570 2530
2019-10-13 05:45 5.97 2700 3240 (2010) 44 (2003) 602 51 70 73 94 988 1570 2530
2019-10-13 04:45 6.03 2770 3240 (2010) 44 (2003) 602 51 70 73 94 988 1570 2530
2019-10-13 03:45 6.10 2860 3240 (2010) 44 (2003) 602 51 70 73 94 988 1570 2530
2019-10-13 02:45 6.15 2920 3240 (2010) 44 (2003) 602 51 70 73 94 988 1570 2530
2019-10-13 01:45 6.20 2990 3240 (2010) 44 (2003) 602 51 70 73 94 988 1570 2530
2019-10-13 00:45 6.29 3100 3240 (2010) 44 (2003) 602 51 70 73 94 988 1570 2530
2019-10-12 23:45 6.36 3190 3220 (2010) 45 (2003) 484 52 74 77 94 238 584 2670
2019-10-12 22:45 6.43 3280 3220 (2010) 45 (2003) 484 52 74 77 94 238 584 2670
2019-10-12 21:45 6.52 3400 3220 (2010) 45 (2003) 484 52 74 77 94 238 584 2670
2019-10-12 20:45 6.60 3510 3220 (2010) 45 (2003) 484 52 74 77 94 238 584 2670
2019-10-12 19:45 6.70 3640 3220 (2010) 45 (2003) 484 52 74 77 94 238 584 2670
2019-10-12 18:45 6.82 3810 3220 (2010) 45 (2003) 484 52 74 77 94 238 584 2670
2019-10-12 17:45 6.91 3930 3220 (2010) 45 (2003) 484 52 74 77 94 238 584 2670
2019-10-12 16:45 7.04 4110 3220 (2010) 45 (2003) 484 52 74 77 94 238 584 2670
2019-10-12 15:45 7.18 4290 3220 (2010) 45 (2003) 484 52 74 77 94 238 584 2670
2019-10-12 14:45 7.33 4480 3220 (2010) 45 (2003) 484 52 74 77 94 238 584 2670
2019-10-12 13:45 7.52 4730 3220 (2010) 45 (2003) 484 52 74 77 94 238 584 2670
2019-10-12 12:45 7.75 5040 3220 (2010) 45 (2003) 484 52 74 77 94 238 584 2670
2019-10-12 11:45 7.96 5330 3220 (2010) 45 (2003) 484 52 74 77 94 238 584 2670
2019-10-12 10:45 8.22 5700 3220 (2010) 45 (2003) 484 52 74 77 94 238 584 2670
2019-10-12 09:45 8.47 6060 3220 (2010) 45 (2003) 484 52 74 77 94 238 584 2670
2019-10-12 08:45 8.76 6480 3220 (2010) 45 (2003) 484 52 74 77 94 238 584 2670
2019-10-12 07:45 9.03 6890 3220 (2010) 45 (2003) 484 52 74 77 94 238 584 2670
2019-10-12 06:45 9.30 7300 3220 (2010) 45 (2003) 484 52 74 77 94 238 584 2670
2019-10-12 05:45 9.54 7670 3220 (2010) 45 (2003) 484 52 74 77 94 238 584 2670
2019-10-12 04:45 9.66 7860 3220 (2010) 45 (2003) 484 52 74 77 94 238 584 2670
2019-10-12 03:45 9.70 7930 3220 (2010) 45 (2003) 484 52 74 77 94 238 584 2670
2019-10-12 02:45 9.69 7910 3220 (2010) 45 (2003) 484 52 74 77 94 238 584 2670
2019-10-12 01:45 9.48 7580 3220 (2010) 45 (2003) 484 52 74 77 94 238 584 2670
2019-10-12 00:45 9.15 7070 3220 (2010) 45 (2003) 484 52 74 77 94 238 584 2670
2019-10-11 23:45 8.57 6200 4960 (2010) 47 (2003) 503 53 70 74 97 179 243 2590
2019-10-11 22:45 7.74 5030 4960 (2010) 47 (2003) 503 53 70 74 97 179 243 2590
2019-10-11 21:45 6.24 3040 4960 (2010) 47 (2003) 503 53 70 74 97 179 243 2590
2019-10-11 20:45 4.17 761 4960 (2010) 47 (2003) 503 53 70 74 97 179 243 2590
2019-10-11 19:45 4.08 691 4960 (2010) 47 (2003) 503 53 70 74 97 179 243 2590
2019-10-11 18:45 4.07 683 4960 (2010) 47 (2003) 503 53 70 74 97 179 243 2590
2019-10-11 17:45 4.06 675 4960 (2010) 47 (2003) 503 53 70 74 97 179 243 2590
2019-10-11 16:45 4.06 675 4960 (2010) 47 (2003) 503 53 70 74 97 179 243 2590
2019-10-11 15:45 4.04 660 4960 (2010) 47 (2003) 503 53 70 74 97 179 243 2590
2019-10-11 14:45 4.04 660 4960 (2010) 47 (2003) 503 53 70 74 97 179 243 2590
2019-10-11 13:45 4.05 668 4960 (2010) 47 (2003) 503 53 70 74 97 179 243 2590
2019-10-11 12:45 4.05 668 4960 (2010) 47 (2003) 503 53 70 74 97 179 243 2590
2019-10-11 11:45 4.05 668 4960 (2010) 47 (2003) 503 53 70 74 97 179 243 2590
2019-10-11 10:45 4.05 668 4960 (2010) 47 (2003) 503 53 70 74 97 179 243 2590
2019-10-11 09:45 4.05 668 4960 (2010) 47 (2003) 503 53 70 74 97 179 243 2590
2019-10-11 08:45 4.05 668 4960 (2010) 47 (2003) 503 53 70 74 97 179 243 2590
2019-10-11 07:45 4.05 668 4960 (2010) 47 (2003) 503 53 70 74 97 179 243 2590
2019-10-11 06:45 4.04 660 4960 (2010) 47 (2003) 503 53 70 74 97 179 243 2590
2019-10-11 05:45 4.04 660 4960 (2010) 47 (2003) 503 53 70 74 97 179 243 2590
2019-10-11 04:45 4.03 653 4960 (2010) 47 (2003) 503 53 70 74 97 179 243 2590
2019-10-11 03:45 4.03 653 4960 (2010) 47 (2003) 503 53 70 74 97 179 243 2590
2019-10-11 02:45 4.03 653 4960 (2010) 47 (2003) 503 53 70 74 97 179 243 2590
2019-10-11 01:45 4.04 660 4960 (2010) 47 (2003) 503 53 70 74 97 179 243 2590
2019-10-11 00:45 4.05 668 4960 (2010) 47 (2003) 503 53 70 74 97 179 243 2590
2019-10-10 23:45 4.06 675 11300 (2010) 48 (2003) 881 56 65 70 104 147 234 4310
2019-10-10 22:45 4.07 683 11300 (2010) 48 (2003) 881 56 65 70 104 147 234 4310
2019-10-10 21:45 4.08 691 11300 (2010) 48 (2003) 881 56 65 70 104 147 234 4310
2019-10-10 20:45 4.08 691 11300 (2010) 48 (2003) 881 56 65 70 104 147 234 4310
2019-10-10 19:45 4.09 698 11300 (2010) 48 (2003) 881 56 65 70 104 147 234 4310
2019-10-10 18:45 4.10 706 11300 (2010) 48 (2003) 881 56 65 70 104 147 234 4310
2019-10-10 17:45 4.11 714 11300 (2010) 48 (2003) 881 56 65 70 104 147 234 4310
2019-10-10 16:45 4.12 721 11300 (2010) 48 (2003) 881 56 65 70 104 147 234 4310
2019-10-10 15:45 4.13 729 11300 (2010) 48 (2003) 881 56 65 70 104 147 234 4310
2019-10-10 14:45 4.15 745 11300 (2010) 48 (2003) 881 56 65 70 104 147 234 4310
2019-10-10 13:45 4.16 753 11300 (2010) 48 (2003) 881 56 65 70 104 147 234 4310
2019-10-10 12:45 4.18 769 11300 (2010) 48 (2003) 881 56 65 70 104 147 234 4310
2019-10-10 11:45 4.19 777 11300 (2010) 48 (2003) 881 56 65 70 104 147 234 4310
2019-10-10 10:45 4.21 793 11300 (2010) 48 (2003) 881 56 65 70 104 147 234 4310
2019-10-10 09:45 4.22 801 11300 (2010) 48 (2003) 881 56 65 70 104 147 234 4310
2019-10-10 08:45 4.23 810 11300 (2010) 48 (2003) 881 56 65 70 104 147 234 4310
2019-10-10 07:45 4.25 826 11300 (2010) 48 (2003) 881 56 65 70 104 147 234 4310
2019-10-10 06:45 4.26 834 11300 (2010) 48 (2003) 881 56 65 70 104 147 234 4310
2019-10-10 05:45 4.28 851 11300 (2010) 48 (2003) 881 56 65 70 104 147 234 4310
2019-10-10 04:45 4.30 868 11300 (2010) 48 (2003) 881 56 65 70 104 147 234 4310
2019-10-10 03:45 4.32 885 11300 (2010) 48 (2003) 881 56 65 70 104 147 234 4310
2019-10-10 02:45 4.33 894 11300 (2010) 48 (2003) 881 56 65 70 104 147 234 4310
2019-10-10 01:45 4.35 911 11300 (2010) 48 (2003) 881 56 65 70 104 147 234 4310
2019-10-10 00:45 4.37 927 11300 (2010) 48 (2003) 881 56 65 70 104 147 234 4310
2019-10-09 23:45 4.38 936 4000 (2010) 46 (2003) 349 55 60 62 97 131 157 1410
2019-10-09 22:45 4.40 952 4000 (2010) 46 (2003) 349 55 60 62 97 131 157 1410
2019-10-09 21:45 4.43 977 4000 (2010) 46 (2003) 349 55 60 62 97 131 157 1410
2019-10-09 20:45 4.44 986 4000 (2010) 46 (2003) 349 55 60 62 97 131 157 1410
2019-10-09 19:45 4.46 1000 4000 (2010) 46 (2003) 349 55 60 62 97 131 157 1410
2019-10-09 18:45 4.48 1020 4000 (2010) 46 (2003) 349 55 60 62 97 131 157 1410
2019-10-09 17:45 4.50 1040 4000 (2010) 46 (2003) 349 55 60 62 97 131 157 1410
2019-10-09 16:45 4.52 1060 4000 (2010) 46 (2003) 349 55 60 62 97 131 157 1410
2019-10-09 15:45 4.55 1090 4000 (2010) 46 (2003) 349 55 60 62 97 131 157 1410
2019-10-09 14:45 4.58 1120 4000 (2010) 46 (2003) 349 55 60 62 97 131 157 1410
2019-10-09 13:45 4.60 1140 4000 (2010) 46 (2003) 349 55 60 62 97 131 157 1410
2019-10-09 12:45 4.62 1160 4000 (2010) 46 (2003) 349 55 60 62 97 131 157 1410
2019-10-09 11:45 4.65 1190 4000 (2010) 46 (2003) 349 55 60 62 97 131 157 1410
2019-10-09 10:45 4.68 1220 4000 (2010) 46 (2003) 349 55 60 62 97 131 157 1410
2019-10-09 08:45 4.72 1260 4000 (2010) 46 (2003) 349 55 60 62 97 131 157 1410
2019-10-09 07:45 4.76 1300 4000 (2010) 46 (2003) 349 55 60 62 97 131 157 1410
2019-10-09 06:45 4.79 1330 4000 (2010) 46 (2003) 349 55 60 62 97 131 157 1410
2019-10-09 05:45 4.82 1370 4000 (2010) 46 (2003) 349 55 60 62 97 131 157 1410
2019-10-09 04:45 4.85 1400 4000 (2010) 46 (2003) 349 55 60 62 97 131 157 1410
2019-10-09 03:45 4.88 1430 4000 (2010) 46 (2003) 349 55 60 62 97 131 157 1410
2019-10-09 02:45 4.92 1480 4000 (2010) 46 (2003) 349 55 60 62 97 131 157 1410
2019-10-09 01:45 4.95 1510 4000 (2010) 46 (2003) 349 55 60 62 97 131 157 1410
2019-10-09 00:45 4.98 1540 4000 (2010) 46 (2003) 349 55 60 62 97 131 157 1410
2019-10-08 23:45 5.02 1590 545 (2010) 43 (2003) 130 49 58 59 91 118 164 379
2019-10-08 22:45 5.06 1640 545 (2010) 43 (2003) 130 49 58 59 91 118 164 379
2019-10-08 21:45 5.10 1680 545 (2010) 43 (2003) 130 49 58 59 91 118 164 379
2019-10-08 20:45 5.15 1740 545 (2010) 43 (2003) 130 49 58 59 91 118 164 379
2019-10-08 19:45 5.19 1790 545 (2010) 43 (2003) 130 49 58 59 91 118 164 379
2019-10-08 18:45 5.23 1840 545 (2010) 43 (2003) 130 49 58 59 91 118 164 379
2019-10-08 17:45 5.29 1910 545 (2010) 43 (2003) 130 49 58 59 91 118 164 379
2019-10-08 16:45 5.33 1960 545 (2010) 43 (2003) 130 49 58 59 91 118 164 379
2019-10-08 15:45 5.38 2010 545 (2010) 43 (2003) 130 49 58 59 91 118 164 379
2019-10-08 14:45 5.45 2090 545 (2010) 43 (2003) 130 49 58 59 91 118 164 379
2019-10-08 13:45 5.51 2160 545 (2010) 43 (2003) 130 49 58 59 91 118 164 379
2019-10-08 12:45 5.57 2230 545 (2010) 43 (2003) 130 49 58 59 91 118 164 379
2019-10-08 11:45 5.64 2310 545 (2010) 43 (2003) 130 49 58 59 91 118 164 379
2019-10-08 10:45 5.71 2390 545 (2010) 43 (2003) 130 49 58 59 91 118 164 379
2019-10-08 09:45 5.78 2470 545 (2010) 43 (2003) 130 49 58 59 91 118 164 379
2019-10-08 08:45 5.86 2570 545 (2010) 43 (2003) 130 49 58 59 91 118 164 379
2019-10-08 07:45 5.93 2650 545 (2010) 43 (2003) 130 49 58 59 91 118 164 379
2019-10-08 06:45 6.02 2760 545 (2010) 43 (2003) 130 49 58 59 91 118 164 379
2019-10-08 05:45 6.12 2890 545 (2010) 43 (2003) 130 49 58 59 91 118 164 379
2019-10-08 04:45 6.21 3000 545 (2010) 43 (2003) 130 49 58 59 91 118 164 379
2019-10-08 03:45 6.31 3130 545 (2010) 43 (2003) 130 49 58 59 91 118 164 379
2019-10-08 02:45 6.42 3270 545 (2010) 43 (2003) 130 49 58 59 91 118 164 379
2019-10-08 01:45 6.57 3470 545 (2010) 43 (2003) 130 49 58 59 91 118 164 379
2019-10-08 00:45 6.72 3670 545 (2010) 43 (2003) 130 49 58 59 91 118 164 379
2019-10-07 23:45 6.88 3890 564 (2010) 30 (2005) 132 39 59 61 88 125 169 393
2019-10-07 22:45 7.06 4140 564 (2010) 30 (2005) 132 39 59 61 88 125 169 393
2019-10-07 21:45 7.23 4350 564 (2010) 30 (2005) 132 39 59 61 88 125 169 393
2019-10-07 20:45 7.42 4600 564 (2010) 30 (2005) 132 39 59 61 88 125 169 393
2019-10-07 19:45 7.62 4870 564 (2010) 30 (2005) 132 39 59 61 88 125 169 393
2019-10-07 18:45 7.77 5070 564 (2010) 30 (2005) 132 39 59 61 88 125 169 393
2019-10-07 17:45 7.89 5240 564 (2010) 30 (2005) 132 39 59 61 88 125 169 393
2019-10-07 16:45 7.91 5260 564 (2010) 30 (2005) 132 39 59 61 88 125 169 393
2019-10-07 15:45 7.84 5170 564 (2010) 30 (2005) 132 39 59 61 88 125 169 393
2019-10-07 14:45 7.53 4750 564 (2010) 30 (2005) 132 39 59 61 88 125 169 393
2019-10-07 13:45 6.52 3400 564 (2010) 30 (2005) 132 39 59 61 88 125 169 393
2019-10-07 12:45 3.41 268 564 (2010) 30 (2005) 132 39 59 61 88 125 169 393
2019-10-07 11:45 3.38 253 564 (2010) 30 (2005) 132 39 59 61 88 125 169 393
2019-10-07 10:45 3.38 253 564 (2010) 30 (2005) 132 39 59 61 88 125 169 393
2019-10-07 09:45 3.38 253 564 (2010) 30 (2005) 132 39 59 61 88 125 169 393
2019-10-07 08:45 3.37 248 564 (2010) 30 (2005) 132 39 59 61 88 125 169 393
2019-10-07 07:45 3.36 243 564 (2010) 30 (2005) 132 39 59 61 88 125 169 393
2019-10-07 06:45 3.34 234 564 (2010) 30 (2005) 132 39 59 61 88 125 169 393
2019-10-07 05:45 3.32 224 564 (2010) 30 (2005) 132 39 59 61 88 125 169 393
2019-10-07 04:45 3.29 211 564 (2010) 30 (2005) 132 39 59 61 88 125 169 393
2019-10-07 03:45 3.28 206 564 (2010) 30 (2005) 132 39 59 61 88 125 169 393
2019-10-07 02:45 3.26 197 564 (2010) 30 (2005) 132 39 59 61 88 125 169 393
2019-10-07 01:45 3.25 193 564 (2010) 30 (2005) 132 39 59 61 88 125 169 393
2019-10-07 00:45 3.24 189 564 (2010) 30 (2005) 132 39 59 61 88 125 169 393
2019-10-06 23:45 3.23 185 576 (2010) 30 (2005) 135 39 56 58 91 133 185 394
2019-10-06 22:45 3.23 185 576 (2010) 30 (2005) 135 39 56 58 91 133 185 394
2019-10-06 21:45 3.21 176 576 (2010) 30 (2005) 135 39 56 58 91 133 185 394
2019-10-06 20:45 3.17 160 576 (2010) 30 (2005) 135 39 56 58 91 133 185 394
2019-10-06 19:45 3.15 152 576 (2010) 30 (2005) 135 39 56 58 91 133 185 394
2019-10-06 18:45 3.15 152 576 (2010) 30 (2005) 135 39 56 58 91 133 185 394
2019-10-06 17:45 3.15 152 576 (2010) 30 (2005) 135 39 56 58 91 133 185 394
2019-10-06 16:45 3.04 113 576 (2010) 30 (2005) 135 39 56 58 91 133 185 394
2019-10-06 15:45 3.05 116 576 (2010) 30 (2005) 135 39 56 58 91 133 185 394
2019-10-06 14:45 3.05 116 576 (2010) 30 (2005) 135 39 56 58 91 133 185 394
2019-10-06 13:45 3.05 116 576 (2010) 30 (2005) 135 39 56 58 91 133 185 394
2019-10-06 12:45 3.05 116 576 (2010) 30 (2005) 135 39 56 58 91 133 185 394
2019-10-06 11:45 3.05 116 576 (2010) 30 (2005) 135 39 56 58 91 133 185 394
2019-10-06 10:45 3.05 116 576 (2010) 30 (2005) 135 39 56 58 91 133 185 394
2019-10-06 09:45 3.05 116 576 (2010) 30 (2005) 135 39 56 58 91 133 185 394
2019-10-06 08:45 3.05 116 576 (2010) 30 (2005) 135 39 56 58 91 133 185 394
2019-10-06 07:45 3.05 116 576 (2010) 30 (2005) 135 39 56 58 91 133 185 394
2019-10-06 06:45 3.05 116 576 (2010) 30 (2005) 135 39 56 58 91 133 185 394
2019-10-06 05:45 3.05 116 576 (2010) 30 (2005) 135 39 56 58 91 133 185 394
2019-10-06 04:45 3.05 116 576 (2010) 30 (2005) 135 39 56 58 91 133 185 394
2019-10-06 03:45 3.05 116 576 (2010) 30 (2005) 135 39 56 58 91 133 185 394
2019-10-06 02:45 3.05 116 576 (2010) 30 (2005) 135 39 56 58 91 133 185 394
2019-10-06 01:45 3.05 116 576 (2010) 30 (2005) 135 39 56 58 91 133 185 394
2019-10-06 00:45 3.05 116 576 (2010) 30 (2005) 135 39 56 58 91 133 185 394

A total of 187 rows are displayed for years 2003 through 2018.

Trips for Buffalo River (Arkansas), Harriet (07056700)

DateStartEndDistanceConditionDischargeHeightFishingDetails
Click for details2016-11-26 Maumee North Spring Creek Total trip distance: 9.4 miles4.4 Low 405 3.54 Poor LMBLMB Brown, Steve
Coroleuski, Linda
Torissi, Chris
Van Someren, Tom
Brown, Steve; Coroleuski, Linda; Torissi, Chris; Van Someren, Tom
No notes for this trip<i>No notes for this trip</i> USGS Gauge Data:
Harriet (07056700)
Discharge: 405
Height: 3.54
<b>USGS Gauge Data:</b></br />Harriet (07056700)<br />Discharge: 405<br />Height: 3.54
Source: Van SomerenSource: Van Someren
Click for details2016-11-27 Spring Creek Bluff Dillard's Ferry Total trip distance: 9.4 miles5.0 Low 336 3.42 Poor LMBLMB Brown, Steve
Coroleuski, Linda
Torissi, Chris
Van Someren, Tom
Brown, Steve; Coroleuski, Linda; Torissi, Chris; Van Someren, Tom
No notes for this trip<i>No notes for this trip</i> USGS Gauge Data:
Harriet (07056700)
Discharge: 336
Height: 3.42
<b>USGS Gauge Data:</b></br />Harriet (07056700)<br />Discharge: 336<br />Height: 3.42
Source: Van SomerenSource: Van Someren
Click for details2015-11-08 Rush Landing Fish Trap Creek Total trip distance: 28.9 miles6.9 Good 258 3.20 Great LMB
SMB
LMB, SMB
Fillmore, Brian
Miller, Russ
Fillmore, Brian; Miller, Russ
No notes for this trip<i>No notes for this trip</i> USGS Gauge Data:
Harriet (07056700)
Discharge: 258
Height: 3.20
<b>USGS Gauge Data:</b></br />Harriet (07056700)<br />Discharge: 258<br />Height: 3.20
Source: FillmoreSource: Fillmore
Click for details2015-11-09 Fish Trap Creek Leatherwood Creek Total trip distance: 28.9 miles9.3 Good 243 3.17 Good LMB
SMB
LMB, SMB
Fillmore, Brian
Miller, Russ
Fillmore, Brian; Miller, Russ
No notes for this trip<i>No notes for this trip</i> USGS Gauge Data:
Harriet (07056700)
Discharge: 243
Height: 3.17
<b>USGS Gauge Data:</b></br />Harriet (07056700)<br />Discharge: 243<br />Height: 3.17
Source: FillmoreSource: Fillmore
Click for details2015-11-10 Leatherwood Creek White River (B) Total trip distance: 28.9 miles7.1 Good 224 3.13 Fair SMBSMB Fillmore, Brian
Miller, Russ
Fillmore, Brian; Miller, Russ
No notes for this trip<i>No notes for this trip</i> USGS Gauge Data:
Harriet (07056700)
Discharge: 224
Height: 3.13
<b>USGS Gauge Data:</b></br />Harriet (07056700)<br />Discharge: 224<br />Height: 3.13
Source: FillmoreSource: Fillmore
Click for details2014-10-08 Dillard's Ferry Ingram Creek (B) Total trip distance: 9.0 miles4.5 Good 96 2.53 Fair SMB
RB
LSF
GSF
SMB, RB, LSF, GSF
Fillmore, Brian
Fillmore, Rebecca
Fillmore, Brian; Fillmore, Rebecca
No notes for this trip<i>No notes for this trip</i> USGS Gauge Data:
Harriet (07056700)
Discharge: 96
Height: 2.53
<b>USGS Gauge Data:</b></br />Harriet (07056700)<br />Discharge: 96<br />Height: 2.53
Source: FillmoreSource: Fillmore
Click for details2014-10-09 Ingram Creek (B) Rush Total trip distance: 9.0 miles4.5 Good 96 2.53 Fair SMB
RB
LSF
GSF
SMB, RB, LSF, GSF
Fillmore, Brian
Fillmore, Rebecca
Fillmore, Brian; Fillmore, Rebecca
No notes for this trip<i>No notes for this trip</i> USGS Gauge Data:
Harriet (07056700)
Discharge: 96
Height: 2.53
<b>USGS Gauge Data:</b></br />Harriet (07056700)<br />Discharge: 96<br />Height: 2.53
Source: FillmoreSource: Fillmore
Click for details2016-08-27 Leatherwood Creek Elephant's Head Total trip distance: 28.9 miles2.8 Good 0 3.77 Good LMB
SMB
LMB, SMB
Fillmore, Brian
Fillmore, Rebecca
Fillmore, Wylee
Javorsek, Rachel
Fillmore, Brian; Fillmore, Rebecca; Fillmore, Wylee; Javorsek, Rachel
No notes for this trip<i>No notes for this trip</i> USGS Gauge Data:
Harriet (07056700)
Discharge: 0
Height: 3.77
<b>USGS Gauge Data:</b></br />Harriet (07056700)<br />Discharge: 0<br />Height: 3.77
Source: FillmoreSource: Fillmore
Click for details2016-08-28 Elephant's Head White River Total trip distance: 28.9 miles4.3 Good 0 3.70 Poor LSFLSF Fillmore, Brian
Fillmore, Rebecca
Fillmore, Wylee
Javorsek, Rachel
Fillmore, Brian; Fillmore, Rebecca; Fillmore, Wylee; Javorsek, Rachel
No notes for this trip<i>No notes for this trip</i> USGS Gauge Data:
Harriet (07056700)
Discharge: 0
Height: 3.70
<b>USGS Gauge Data:</b></br />Harriet (07056700)<br />Discharge: 0<br />Height: 3.70
Source: FillmoreSource: Fillmore
Click for details2016-08-26 Fish Trap Creek Leatherwood Creek Total trip distance: 28.9 miles9.3 Good 0 3.91 Fair SMBSMB Fillmore, Brian
Fillmore, Rebecca
Fillmore, Wylee
Javorsek, Rachel
Fillmore, Brian; Fillmore, Rebecca; Fillmore, Wylee; Javorsek, Rachel
No notes for this trip<i>No notes for this trip</i> USGS Gauge Data:
Harriet (07056700)
Discharge: 0
Height: 3.91
<b>USGS Gauge Data:</b></br />Harriet (07056700)<br />Discharge: 0<br />Height: 3.91
Source: FillmoreSource: Fillmore
Click for details2016-08-25 Rush Landing Fish Trap Creek Total trip distance: 28.9 miles6.9 Good 0 4.06 Good LMB
SMB
LMB, SMB
Fillmore, Brian
Fillmore, Rebecca
Fillmore, Wylee
Javorsek, Rachel
Fillmore, Brian; Fillmore, Rebecca; Fillmore, Wylee; Javorsek, Rachel
No notes for this trip<i>No notes for this trip</i> USGS Gauge Data:
Harriet (07056700)
Discharge: 0
Height: 4.06
<b>USGS Gauge Data:</b></br />Harriet (07056700)<br />Discharge: 0<br />Height: 4.06
Source: FillmoreSource: Fillmore

A total of 11 rows are displayed.

Trip Summary for Buffalo River (Arkansas), Harriet (07056700)

Miles65
Trips4
People9
Dates11
Years3
Months3
Rows11
Sources2

Condition Descriptions

Fishing Conditions

Fish Species

Notes

Classic Trip List

The classic River Trips application is still available for use. It is updated with the new system using a data retrofit. It is no longer maintained. The original River Trips application is no longer updated (as of 1 Dec 2016) but can be checked for errors or for the condition of the data before it was converted to the new system.